Bremen, North Dakota
Current Conditions -  °F | °C
As of 10:35 PM on Monday 20 Oct 2014 (Local Time) from K46D Reporting Station
Clear Clear  
Wind Chill: 43°   Ceiling: Unl
Heat Index: 48°   Visibility: 10mi
Dew Point: 41°   Wind: 12mph
Humidity: 76%   Direction: 150°SSE
Pressure: 30"   Gusts: NA
Location:  47.75°N, 99.39°W
Report Text: K46D 210335Z AUTO 15010KT 10SM CLR 09/05 A3000 RMK AO2
Loading
Personal Weather Stations






























Interactive Weather Map
Tropical Storm Tracking
New forecast layout! Learn more

10-Day Weather Forecast

Advertisements
Track Severe Weather on mobile